Time;durP1;ratioP1;P1;durP2;ratioP2;P2;SDS_P1;SDS_P2;PMS_P1;PMS_P2;Temp;Humidity;BMP_temperature;BMP_pressure;BME280_temperature;BME280_humidity;BME280_pressure;Samples;Min_cycle;Max_cycle;Signal;HPM_P1;HPM_P2
2021/09/08 00:01:58;;;;;;;3.97;2.58;;;;;;;18.45;46.09;100363.16;5030938;28;20025;-81
2021/09/08 00:04:23;;;;;;;4.10;2.53;;;;;;;18.56;46.27;100381.22;5031150;28;20021;-80
2021/09/08 00:06:48;;;;;;;5.22;2.25;;;;;;;18.58;46.18;100389.03;5031024;28;20021;-80
2021/09/08 00:09:16;;;;;;;8.55;2.75;;;;;;;18.71;46.25;100411.28;5030915;28;20029;-80
2021/09/08 00:11:41;;;;;;;6.15;2.45;;;;;;;18.50;46.16;100373.22;5030807;28;21427;-81
2021/09/08 00:14:07;;;;;;;5.28;2.55;;;;;;;18.91;46.10;100432.66;5029205;28;20053;-80
2021/09/08 00:16:32;;;;;;;5.75;2.63;;;;;;;18.93;46.15;100443.97;5030776;28;20026;-80
2021/09/08 00:18:58;;;;;;;5.38;2.78;;;;;;;18.81;46.19;100413.53;5029343;28;20104;-80
2021/09/08 00:21:23;;;;;;;6.15;2.58;;;;;;;18.34;46.17;100334.38;5030717;28;20402;-80
2021/09/08 00:23:49;;;;;;;5.85;2.60;;;;;;;18.97;46.05;100434.47;5031149;28;20032;-74
2021/09/08 00:26:14;;;;;;;5.72;2.67;;;;;;;18.59;46.04;100375.50;5033521;28;20105;-74
2021/09/08 00:28:39;;;;;;;3.13;2.30;;;;;;;18.90;46.16;100422.16;5034629;28;20025;-74
2021/09/08 00:31:05;;;;;;;4.63;2.47;;;;;;;18.71;46.26;100399.78;5033082;28;20105;-74
2021/09/08 00:33:30;;;;;;;4.00;2.50;;;;;;;18.66;46.28;100387.03;5034257;28;20501;-75
2021/09/08 00:35:55;;;;;;;8.43;2.75;;;;;;;18.70;46.21;100400.81;5034140;28;20031;-74
2021/09/08 00:38:21;;;;;;;5.28;2.50;;;;;;;18.77;46.34;100415.00;5032930;28;20083;-74
2021/09/08 00:40:46;;;;;;;6.93;2.53;;;;;;;18.60;46.37;100389.69;5034003;28;20048;-74
2021/09/08 00:43:12;;;;;;;7.45;2.53;;;;;;;18.55;46.33;100370.75;5033938;28;20096;-74
2021/09/08 00:45:38;;;;;;;6.72;2.88;;;;;;;18.84;46.15;100420.31;5034278;28;20105;-74
2021/09/08 00:48:04;;;;;;;5.18;2.33;;;;;;;18.70;46.52;100409.66;5034186;28;20036;-74
2021/09/08 00:50:30;;;;;;;5.78;2.88;;;;;;;18.38;46.31;100370.38;5034018;28;20530;-74
2021/09/08 00:52:58;;;;;;;4.97;2.47;;;;;;;18.78;46.47;100427.34;5034189;28;20056;-75
2021/09/08 00:55:25;;;;;;;6.63;2.58;;;;;;;18.81;46.50;100429.59;5032632;28;20025;-74
2021/09/08 00:57:51;;;;;;;4.80;2.75;;;;;;;18.81;46.52;100421.56;5033918;28;20052;-74
2021/09/08 01:00:17;;;;;;;5.60;2.38;;;;;;;18.40;46.40;100362.97;5033731;28;20486;-74
2021/09/08 01:02:43;;;;;;;9.32;2.55;;;;;;;18.70;46.58;100408.84;5033597;28;20032;-74
2021/09/08 01:05:09;;;;;;;5.38;2.47;;;;;;;18.43;46.33;100357.19;5033573;28;20021;-74
2021/09/08 01:07:35;;;;;;;5.70;2.42;;;;;;;18.66;46.32;100387.03;5032116;28;20029;-74
2021/09/08 01:10:00;;;;;;;6.22;2.70;;;;;;;18.73;46.38;100400.38;5033520;28;20029;-74
2021/09/08 01:12:25;;;;;;;4.65;2.70;;;;;;;18.78;46.49;100413.94;5033737;28;20017;-74
2021/09/08 01:14:51;;;;;;;6.15;2.63;;;;;;;18.79;46.77;100414.78;5033388;28;20446;-74
2021/09/08 01:17:20;;;;;;;6.75;2.70;;;;;;;18.78;46.45;100410.47;5033547;28;20391;-74
2021/09/08 01:19:46;;;;;;;5.50;2.38;;;;;;;18.83;46.46;100416.81;5033330;28;20127;-74
2021/09/08 01:22:11;;;;;;;4.90;2.45;;;;;;;18.86;46.34;100413.72;5033656;28;20083;-74
2021/09/08 01:24:40;;;;;;;4.63;2.42;;;;;;;18.86;46.33;100416.41;5032339;28;20026;-79
2021/09/08 01:27:05;;;;;;;6.18;2.60;;;;;;;18.68;46.47;100384.97;5033470;28;20096;-80
2021/09/08 01:29:31;;;;;;;5.03;2.40;;;;;;;18.38;46.58;100346.31;5033289;28;20040;-81
2021/09/08 01:31:58;;;;;;;5.32;2.42;;;;;;;18.73;46.45;100393.19;5033336;28;20028;-79
2021/09/08 01:34:24;;;;;;;4.63;2.60;;;;;;;18.83;46.48;100408.78;5033078;28;20021;-80
2021/09/08 01:36:51;;;;;;;5.63;2.53;;;;;;;18.38;46.64;100336.44;5032671;28;20075;-79
2021/09/08 01:39:18;;;;;;;6.47;2.38;;;;;;;18.16;46.35;100294.13;5031705;28;20112;-80
2021/09/08 01:41:44;;;;;;;5.95;2.72;;;;;;;18.42;46.40;100345.69;5033077;28;20036;-80
2021/09/08 01:44:09;;;;;;;4.05;2.30;;;;;;;18.35;46.41;100341.38;5033027;28;20492;-80
2021/09/08 01:46:34;;;;;;;5.30;2.28;;;;;;;18.67;46.41;100382.50;5033233;28;20021;-80
2021/09/08 01:49:00;;;;;;;4.95;2.20;;;;;;;18.48;46.59;100365.41;5031692;28;20029;-81
2021/09/08 01:51:25;;;;;;;4.90;2.08;;;;;;;18.51;46.57;100356.97;5032981;28;20018;-81
2021/09/08 01:53:51;;;;;;;8.35;2.85;;;;;;;18.72;46.58;100396.06;5032785;28;20494;-82
2021/09/08 01:56:16;;;;;;;4.22;2.35;;;;;;;18.19;46.70;100317.78;5033204;28;20040;-80
2021/09/08 01:58:42;;;;;;;4.18;2.22;;;;;;;18.31;46.88;100334.81;5032864;28;20030;-81
2021/09/08 02:01:08;;;;;;;4.70;2.42;;;;;;;18.36;46.89;100359.88;5032805;28;20029;-82
2021/09/08 02:03:33;;;;;;;7.20;2.65;;;;;;;18.73;46.66;100395.03;5032478;28;20029;-81
2021/09/08 02:05:59;;;;;;;5.82;2.67;;;;;;;18.34;46.81;100340.56;5032849;28;20021;-81
2021/09/08 02:08:24;;;;;;;4.35;2.25;;;;;;;18.22;46.77;100323.53;5032556;28;20028;-81
2021/09/08 02:10:50;;;;;;;2.83;1.90;;;;;;;18.59;46.89;100375.50;5032638;28;20026;-80
2021/09/08 02:13:15;;;;;;;5.50;2.13;;;;;;;18.66;46.74;100387.03;5031125;28;20024;-80
2021/09/08 02:15:40;;;;;;;7.72;2.70;;;;;;;18.68;46.86;100392.16;5032364;28;20021;-79
2021/09/08 02:18:06;;;;;;;6.13;2.25;;;;;;;18.62;46.49;100372.44;5031984;28;20028;-80
2021/09/08 02:20:32;;;;;;;6.53;2.58;;;;;;;18.76;46.75;100391.13;5032326;28;20021;-81
2021/09/08 02:22:57;;;;;;;3.33;2.10;;;;;;;18.51;46.67;100358.81;5032334;28;20574;-80
2021/09/08 02:25:22;;;;;;;4.72;2.30;;;;;;;18.76;46.66;100389.25;5032434;28;20402;-75
2021/09/08 02:27:49;;;;;;;3.80;2.20;;;;;;;18.65;46.66;100369.34;5032351;28;20017;-74
2021/09/08 02:30:15;;;;;;;4.53;2.50;;;;;;;18.70;46.68;100382.09;5032230;28;20029;-75
2021/09/08 02:32:41;;;;;;;3.60;2.38;;;;;;;18.75;46.67;100394.81;5032074;28;20025;-75
2021/09/08 02:35:07;;;;;;;5.35;2.55;;;;;;;18.59;46.73;100363.97;5030824;28;20056;-75
2021/09/08 02:37:33;;;;;;;5.43;2.30;;;;;;;18.80;46.58;100385.13;5031843;28;20494;-76
2021/09/08 02:39:58;;;;;;;4.85;2.20;;;;;;;18.37;46.58;100336.66;5031941;28;20034;-75
2021/09/08 02:42:24;;;;;;;6.03;2.22;;;;;;;18.10;46.83;100311.81;5031916;28;20053;-75
2021/09/08 02:44:49;;;;;;;5.30;2.58;;;;;;;18.56;46.89;100386.59;5031998;28;20108;-75
2021/09/08 02:47:16;;;;;;;4.53;2.40;;;;;;;18.32;47.03;100347.97;5031268;28;20022;-76
2021/09/08 02:49:42;;;;;;;4.63;2.30;;;;;;;18.29;46.92;100340.38;5030410;28;20028;-76
2021/09/08 02:52:08;;;;;;;5.03;2.53;;;;;;;18.49;46.44;100376.94;5031627;28;20096;-76
2021/09/08 02:54:34;;;;;;;6.35;2.60;;;;;;;18.66;46.66;100391.56;5031540;28;20090;-75
2021/09/08 02:56:59;;;;;;;5.15;2.70;;;;;;;18.42;46.69;100344.88;5031650;28;20469;-75
2021/09/08 02:59:25;;;;;;;4.22;2.55;;;;;;;18.73;46.55;100376.31;5031636;28;20030;-74
2021/09/08 03:01:50;;;;;;;4.75;2.28;;;;;;;18.72;46.76;100375.50;5031503;28;20046;-75
2021/09/08 03:04:15;;;;;;;3.80;2.33;;;;;;;18.60;46.57;100354.91;5031452;28;20025;-75
2021/09/08 03:06:41;;;;;;;3.58;2.50;;;;;;;18.51;46.48;100346.28;5031337;28;20510;-76
2021/09/08 03:09:06;;;;;;;6.10;2.70;;;;;;;18.81;46.51;100373.41;5031596;28;20029;-75
2021/09/08 03:11:32;;;;;;;6.95;2.85;;;;;;;18.79;46.58;100378.13;5031564;28;20079;-75
2021/09/08 03:13:57;;;;;;;3.50;2.22;;;;;;;18.74;46.77;100377.94;5031349;28;20057;-75
2021/09/08 03:16:22;;;;;;;4.80;2.13;;;;;;;18.53;46.61;100340.72;5031529;28;20013;-75
2021/09/08 03:18:48;;;;;;;5.85;2.38;;;;;;;18.75;46.65;100382.28;5031503;28;20021;-75
2021/09/08 03:21:13;;;;;;;8.23;2.83;;;;;;;18.75;46.55;100370.75;5031444;28;20028;-75
2021/09/08 03:23:39;;;;;;;3.22;2.17;;;;;;;18.54;46.56;100337.00;5031524;28;20025;-72
2021/09/08 03:26:04;;;;;;;4.32;2.53;;;;;;;18.81;46.59;100381.44;5031352;28;20025;-74
2021/09/08 03:28:30;;;;;;;5.78;2.40;;;;;;;18.79;46.34;100377.31;5031456;28;20022;-76
2021/09/08 03:30:55;;;;;;;4.93;2.45;;;;;;;18.76;46.43;100375.06;5031134;28;20092;-76
2021/09/08 03:33:21;;;;;;;4.38;2.25;;;;;;;18.53;46.41;100343.38;5031161;28;20017;-76
2021/09/08 03:35:46;;;;;;;5.55;2.80;;;;;;;18.76;46.55;100380.41;5031293;28;20430;-76
2021/09/08 03:38:12;;;;;;;4.05;2.42;;;;;;;18.69;46.74;100372.41;5031311;28;20018;-75
2021/09/08 03:40:37;;;;;;;3.88;2.55;;;;;;;18.72;46.84;100372.00;5031348;28;20104;-75
2021/09/08 03:43:03;;;;;;;9.40;3.00;;;;;;;18.43;46.81;100328.59;5031012;28;20034;-75
2021/09/08 03:45:29;;;;;;;8.85;2.80;;;;;;;18.26;46.67;100297.19;5031291;28;20036;-75
2021/09/08 03:47:54;;;;;;;7.00;2.80;;;;;;;18.75;46.64;100365.41;5031456;28;20028;-76
2021/09/08 03:50:19;;;;;;;5.50;2.53;;;;;;;18.77;46.58;100374.03;5031237;28;20025;-76
2021/09/08 03:52:45;;;;;;;4.63;2.40;;;;;;;18.79;46.68;100380.00;5030883;28;20021;-75
2021/09/08 03:55:10;;;;;;;3.60;2.60;;;;;;;18.69;46.63;100359.84;5030840;28;20414;-76
2021/09/08 03:57:36;;;;;;;5.68;2.70;;;;;;;18.78;46.62;100371.16;5030937;28;20096;-75
2021/09/08 04:00:04;;;;;;;5.10;2.35;;;;;;;18.68;46.81;100374.28;5033508;28;20022;-75
2021/09/08 04:02:29;;;;;;;4.55;2.55;;;;;;;17.85;46.79;100241.38;5034828;28;20022;-75
2021/09/08 04:04:57;;;;;;;5.97;2.75;;;;;;;18.58;46.90;100373.84;5034986;28;20095;-75
2021/09/08 04:07:24;;;;;;;4.80;2.90;;;;;;;18.70;46.97;100377.56;5035004;28;20014;-75
2021/09/08 04:09:49;;;;;;;6.47;3.20;;;;;;;18.48;46.86;100335.19;5034941;28;20409;-75
2021/09/08 04:12:14;;;;;;;4.85;2.25;;;;;;;18.55;47.11;100365.41;5033472;28;20030;-74
2021/09/08 04:14:40;;;;;;;6.72;3.10;;;;;;;18.47;47.13;100347.72;5034450;28;20107;-75
2021/09/08 04:17:05;;;;;;;5.45;2.75;;;;;;;18.41;47.06;100352.06;5034809;28;20022;-75
2021/09/08 04:19:30;;;;;;;6.63;3.00;;;;;;;18.39;47.40;100343.44;5034622;28;20402;-75
2021/09/08 04:21:56;;;;;;;6.78;2.45;;;;;;;18.65;47.09;100371.19;5034550;28;20060;-75
2021/09/08 04:24:21;;;;;;;4.30;2.95;;;;;;;18.34;47.28;100335.22;5033474;28;20021;-81
2021/09/08 04:26:47;;;;;;;4.40;3.15;;;;;;;18.19;47.05;100304.41;5034472;28;20104;-80
2021/09/08 04:29:14;;;;;;;6.00;2.90;;;;;;;18.43;47.17;100344.66;5034412;28;20021;-80
2021/09/08 04:31:39;;;;;;;6.32;2.92;;;;;;;18.31;47.04;100308.91;5033192;28;20017;-81
2021/09/08 04:34:06;;;;;;;4.43;2.67;;;;;;;18.78;47.13;100381.84;5034355;28;20022;-81
2021/09/08 04:36:32;;;;;;;6.57;2.58;;;;;;;18.79;46.98;100377.31;5034444;28;20053;-81
2021/09/08 04:38:58;;;;;;;5.90;2.78;;;;;;;18.54;47.13;100337.84;5034526;28;20105;-82
2021/09/08 04:41:23;;;;;;;4.55;2.55;;;;;;;18.73;47.00;100353.06;5034037;28;20546;-81
2021/09/08 04:43:49;;;;;;;6.43;2.85;;;;;;;18.60;46.84;100333.53;5033951;28;20021;-81
2021/09/08 04:46:14;;;;;;;4.07;2.70;;;;;;;18.33;46.87;100292.66;5034115;28;20021;-81
2021/09/08 04:48:40;;;;;;;5.75;2.88;;;;;;;18.71;46.84;100349.78;5034195;28;20021;-81
2021/09/08 04:51:05;;;;;;;4.22;2.80;;;;;;;18.52;46.68;100315.00;5034011;28;20074;-80
2021/09/08 04:53:30;;;;;;;8.07;3.17;;;;;;;18.74;46.73;100351.19;5033745;28;20410;-81
2021/09/08 04:55:57;;;;;;;7.38;3.30;;;;;;;19.01;46.48;100386.69;5034346;28;20022;-81
2021/09/08 04:58:23;;;;;;;6.32;3.17;;;;;;;18.67;46.54;100335.19;5033749;28;20040;-80
2021/09/08 05:00:49;;;;;;;4.30;2.55;;;;;;;18.66;46.81;100352.25;5033740;28;20021;-80
2021/09/08 05:03:14;;;;;;;7.30;3.00;;;;;;;18.88;46.82;100390.25;5032504;28;20017;-81
2021/09/08 05:05:39;;;;;;;5.93;3.28;;;;;;;18.75;46.99;100378.78;5033786;28;20401;-81
2021/09/08 05:08:05;;;;;;;5.32;2.92;;;;;;;18.72;47.21;100391.53;5033886;28;20021;-81
2021/09/08 05:10:30;;;;;;;5.50;2.70;;;;;;;18.80;47.03;100389.66;5032931;28;20018;-79
2021/09/08 05:12:56;;;;;;;6.20;2.90;;;;;;;18.47;47.13;100334.34;5033927;28;20038;-80
2021/09/08 05:15:21;;;;;;;9.35;3.63;;;;;;;18.59;46.82;100345.25;5034440;28;20123;-80
2021/09/08 05:17:47;;;;;;;9.32;2.83;;;;;;;18.64;47.14;100372.22;5048938;28;20103;-81
2021/09/08 05:20:13;;;;;;;7.13;3.10;;;;;;;18.39;47.00;100337.25;5053232;28;20025;-81
2021/09/08 05:22:38;;;;;;;6.93;3.05;;;;;;;18.79;46.98;100394.19;5053481;28;20032;-80
2021/09/08 05:25:04;;;;;;;8.05;3.70;;;;;;;18.89;46.95;100399.91;5053297;28;20028;-75
2021/09/08 05:27:30;;;;;;;10.90;3.50;;;;;;;18.96;46.83;100395.38;5052872;28;20031;-74
2021/09/08 05:29:55;;;;;;;8.95;4.00;;;;;;;18.42;46.88;100323.47;5050572;28;20024;-74
2021/09/08 05:32:20;;;;;;;9.18;4.60;;;;;;;18.79;46.53;100364.75;5048285;28;20025;-75
2021/09/08 05:34:46;;;;;;;9.80;4.20;;;;;;;18.94;46.60;100370.66;5052880;28;20052;-74
2021/09/08 05:37:12;;;;;;;10.57;4.50;;;;;;;19.10;46.40;100377.41;5052985;28;20032;-75
2021/09/08 05:39:37;;;;;;;7.68;3.58;;;;;;;19.29;46.29;100391.72;5052964;28;20021;-75
2021/09/08 05:42:03;;;;;;;7.85;3.78;;;;;;;19.31;46.32;100400.34;5048671;28;20022;-75
2021/09/08 05:44:28;;;;;;;7.90;3.97;;;;;;;19.10;46.17;100355.16;5036207;28;20421;-75
2021/09/08 05:46:53;;;;;;;9.50;4.03;;;;;;;19.39;46.27;100400.13;5035001;28;20437;-75
2021/09/08 05:49:19;;;;;;;7.13;3.55;;;;;;;19.44;46.00;100403.00;5038508;28;20051;-75
2021/09/08 05:51:44;;;;;;;8.25;3.33;;;;;;;18.87;46.20;100313.69;5047583;28;20017;-73
2021/09/08 05:54:10;;;;;;;8.80;3.92;;;;;;;19.34;46.02;100386.56;5049637;28;20025;-75
2021/09/08 05:56:36;;;;;;;8.82;4.40;;;;;;;19.16;46.04;100362.34;5038276;28;20027;-75
2021/09/08 05:59:02;;;;;;;7.72;3.53;;;;;;;18.98;46.18;100323.72;5038885;28;20426;-76
2021/09/08 06:01:28;;;;;;;12.65;3.92;;;;;;;19.20;46.28;100361.69;5032478;28;20130;-76
2021/09/08 06:03:53;;;;;;;8.05;4.20;;;;;;;19.12;45.98;100348.56;5050605;28;20060;-73
2021/09/08 06:06:19;;;;;;;8.30;4.40;;;;;;;19.27;46.13;100378.53;5043682;28;20118;-76
2021/09/08 06:08:44;;;;;;;9.77;4.35;;;;;;;19.43;46.27;100404.03;5032242;28;20418;-74
2021/09/08 06:11:10;;;;;;;7.07;3.97;;;;;;;19.47;46.22;100405.25;5048305;28;20028;-75
2021/09/08 06:13:36;;;;;;;8.85;4.10;;;;;;;19.44;46.17;100400.31;5050269;28;20079;-76
2021/09/08 06:16:02;;;;;;;7.13;3.47;;;;;;;19.50;46.08;100402.13;5050910;28;20095;-76
2021/09/08 06:18:27;;;;;;;8.80;4.07;;;;;;;19.15;46.04;100334.75;5051880;28;20031;-75
2021/09/08 06:20:53;;;;;;;10.00;4.28;;;;;;;19.66;46.06;100404.31;5050635;28;20029;-75
2021/09/08 06:23:18;;;;;;;9.70;3.50;;;;;;;19.72;45.91;100408.00;5045233;28;20025;-75
2021/09/08 06:25:43;;;;;;;8.82;3.80;;;;;;;19.44;46.00;100365.50;5047806;28;20039;-75
2021/09/08 06:28:09;;;;;;;7.05;3.50;;;;;;;19.75;45.93;100412.09;5046257;28;20029;-75
2021/09/08 06:30:34;;;;;;;8.60;3.03;;;;;;;19.51;45.76;100374.31;5029936;28;20025;-75
2021/09/08 06:33:00;;;;;;;8.85;3.55;;;;;;;19.80;45.69;100402.38;5037575;28;20025;-75
2021/09/08 06:35:25;;;;;;;8.65;3.90;;;;;;;19.62;45.87;100391.56;5030447;28;20020;-74
2021/09/08 06:37:51;;;;;;;9.32;3.20;;;;;;;19.51;45.76;100355.56;5034623;28;20497;-75
2021/09/08 06:40:16;;;;;;;9.98;3.97;;;;;;;19.43;45.88;100334.38;5033086;28;20375;-75
2021/09/08 06:42:43;;;;;;;6.30;3.28;;;;;;;19.91;45.78;100407.03;5030899;28;20029;-75
2021/09/08 06:45:09;;;;;;;9.65;4.95;;;;;;;19.94;45.88;100401.22;5041231;28;20013;-75
2021/09/08 06:47:35;;;;;;;8.57;3.70;;;;;;;19.97;45.78;100403.47;5035918;28;20024;-74
2021/09/08 06:50:00;;;;;;;7.07;2.92;;;;;;;20.02;45.80;100396.63;5039017;28;20031;-75
2021/09/08 06:52:26;;;;;;;10.88;4.03;;;;;;;19.70;45.70;100345.75;5047918;28;20616;-76
2021/09/08 06:54:51;;;;;;;6.63;3.83;;;;;;;19.86;45.46;100355.13;5037487;28;20021;-75
2021/09/08 06:57:17;;;;;;;5.07;2.83;;;;;;;20.08;45.36;100369.81;5055957;28;20351;-75
2021/09/08 06:59:43;;;;;;;8.05;3.28;;;;;;;20.37;45.25;100413.06;5044549;28;20100;-74
2021/09/08 07:02:09;;;;;;;9.10;3.47;;;;;;;20.22;45.26;100383.91;5029514;28;20083;-75
2021/09/08 07:04:35;;;;;;;9.73;3.85;;;;;;;20.27;45.11;100384.06;5031137;28;20029;-75
2021/09/08 07:07:01;;;;;;;9.73;3.75;;;;;;;20.04;45.13;100346.31;5031007;28;20032;-76
2021/09/08 07:09:27;;;;;;;8.40;3.10;;;;;;;20.58;45.05;100410.00;5029834;28;20465;-75
2021/09/08 07:11:53;;;;;;;9.98;3.40;;;;;;;20.15;45.01;100329.53;5034577;28;20108;-75
2021/09/08 07:14:18;;;;;;;8.82;5.63;;;;;;;20.35;44.75;100348.09;5030122;28;20506;-75
2021/09/08 07:16:44;;;;;;;9.35;4.68;;;;;;;20.85;44.40;100411.38;5030565;28;20033;-75
2021/09/08 07:19:09;;;;;;;10.75;4.60;;;;;;;20.97;44.42;100410.63;5036861;28;20107;-76
2021/09/08 07:21:35;;;;;;;11.30;3.17;;;;;;;20.85;44.23;100389.91;5039448;28;20560;-75
2021/09/08 07:24:00;;;;;;;9.20;4.03;;;;;;;21.01;43.90;100401.06;5036339;28;20021;-75
2021/09/08 07:26:32;;;;;;;9.75;4.40;;;;;;;20.91;43.83;100374.75;5045739;28;20020;-76
2021/09/08 07:28:57;;;;;;;6.95;4.32;;;;;;;20.81;43.99;100348.44;5056518;28;20025;-76
2021/09/08 07:31:23;;;;;;;8.07;4.20;;;;;;;20.83;43.71;100356.28;5051061;28;20514;-74
2021/09/08 07:33:48;;;;;;;9.13;3.80;;;;;;;21.12;43.78;100403.81;5047331;28;20029;-73
2021/09/08 07:36:14;;;;;;;5.75;3.00;;;;;;;21.07;43.52;100392.13;5038766;28;20032;-74
2021/09/08 07:38:39;;;;;;;7.63;3.65;;;;;;;21.00;43.51;100377.97;5039367;28;20013;-75
2021/09/08 07:41:04;;;;;;;8.02;3.00;;;;;;;21.13;43.33;100377.78;5051700;28;20873;-76
2021/09/08 07:43:30;;;;;;;6.72;3.75;;;;;;;21.01;43.35;100360.81;5043519;28;20026;-76
2021/09/08 07:45:55;;;;;;;8.13;3.53;;;;;;;21.34;43.37;100395.31;5043436;28;20494;-76
2021/09/08 07:48:23;;;;;;;12.77;3.55;;;;;;;21.16;43.15;100358.53;5038877;28;20144;-76
2021/09/08 07:50:48;;;;;;;8.98;3.50;;;;;;;21.60;43.03;100410.25;5038978;28;20017;-75
2021/09/08 07:53:14;;;;;;;12.30;3.60;;;;;;;21.69;42.86;100416.94;5038799;28;20031;-75
2021/09/08 07:55:39;;;;;;;14.55;3.97;;;;;;;21.83;42.60;100400.38;5045003;28;20509;-75
2021/09/08 07:58:05;;;;;;;7.97;3.90;;;;;;;21.98;42.41;100409.88;5040399;28;20116;-75
2021/09/08 08:00:33;;;;;;;5.53;3.63;;;;;;;22.23;41.81;100410.53;5050502;28;20020;-76
2021/09/08 08:02:59;;;;;;;8.10;3.92;;;;;;;21.80;41.86;100332.81;5044364;28;20039;-75
2021/09/08 08:05:24;;;;;;;6.60;3.30;;;;;;;22.42;41.29;100413.94;5035551;28;20017;-75
2021/09/08 08:07:49;;;;;;;9.20;3.17;;;;;;;22.35;41.34;100392.53;5039293;28;20017;-74
2021/09/08 08:10:16;;;;;;;8.27;2.90;;;;;;;22.54;41.20;100411.25;5049553;28;20470;-75
2021/09/08 08:12:42;;;;;;;6.03;3.20;;;;;;;22.47;41.14;100390.66;5061573;28;20676;-75
2021/09/08 08:15:09;;;;;;;9.88;3.88;;;;;;;22.61;41.15;100410.06;5037612;28;20115;-75
2021/09/08 08:17:35;;;;;;;8.27;3.08;;;;;;;22.54;40.97;100404.00;5044030;28;20418;-74
2021/09/08 08:20:01;;;;;;;5.43;2.50;;;;;;;22.48;41.06;100410.31;5045012;28;20045;-74
2021/09/08 08:22:26;;;;;;;5.13;2.90;;;;;;;22.57;41.00;100413.47;5046746;28;20029;-74
2021/09/08 08:24:51;;;;;;;5.75;2.17;;;;;;;22.45;40.78;100390.06;5031467;28;20037;-74
2021/09/08 08:27:17;;;;;;;6.55;3.05;;;;;;;22.15;40.83;100359.75;5035108;28;20028;-74
2021/09/08 08:29:43;;;;;;;7.93;2.83;;;;;;;21.78;40.82;100308.84;5040758;28;20025;-75
2021/09/08 08:32:08;;;;;;;6.40;2.90;;;;;;;22.28;40.97;100386.44;5039725;28;20025;-75
2021/09/08 08:34:34;;;;;;;10.73;4.00;;;;;;;22.42;40.96;100398.63;5033522;28;20090;-75
2021/09/08 08:36:59;;;;;;;6.22;3.75;;;;;;;22.09;40.70;100326.56;5050045;28;20099;-75
2021/09/08 08:39:25;;;;;;;8.20;2.88;;;;;;;22.31;40.91;100342.94;5043034;28;20490;-74
2021/09/08 08:41:50;;;;;;;7.82;3.20;;;;;;;22.64;40.66;100381.84;5030684;28;20029;-75
2021/09/08 08:44:22;;;;;;;10.27;3.70;;;;;;;22.75;40.55;100376.44;5030189;28;20505;-75
2021/09/08 08:46:48;;;;;;;5.78;3.53;;;;;;;22.52;40.04;100304.66;5035063;28;20552;-74
2021/09/08 08:49:13;;;;;;;5.85;2.70;;;;;;;23.03;39.60;100366.81;5045347;28;20193;-75
2021/09/08 08:51:39;;;;;;;4.85;3.35;;;;;;;22.77;39.78;100342.03;5039683;28;20021;-75
2021/09/08 08:54:04;;;;;;;4.13;2.28;;;;;;;23.17;39.40;100370.06;5033559;28;20082;-75
2021/09/08 08:56:30;;;;;;;6.97;2.75;;;;;;;23.19;39.26;100363.38;5033533;28;20022;-76
2021/09/08 08:58:55;;;;;;;5.63;2.90;;;;;;;23.28;39.03;100347.63;5032001;28;20040;-74
2021/09/08 09:01:23;;;;;;;6.95;3.90;;;;;;;23.61;38.73;100363.06;5039117;28;20464;-74
2021/09/08 09:04:06;;;;;;;7.38;3.45;;;;;;;23.83;38.01;100364.00;5043424;28;20028;-78
2021/09/08 09:06:33;;;;;;;3.97;2.70;;;;;;;23.49;37.77;100300.28;5034469;28;20117;-75
2021/09/08 09:09:03;;;;;;;5.50;2.90;;;;;;;23.94;37.63;100363.13;5043485;28;20082;-74
2021/09/08 09:11:28;;;;;;;6.03;2.67;;;;;;;23.87;37.52;100357.06;5032893;28;20075;-76
2021/09/08 09:13:54;;;;;;;6.18;2.95;;;;;;;23.85;37.82;100366.47;5034163;28;20045;-75
2021/09/08 09:16:24;;;;;;;7.13;2.95;;;;;;;23.84;37.79;100356.75;5031990;28;20061;-75
2021/09/08 09:18:49;;;;;;;4.35;2.80;;;;;;;23.54;37.90;100305.78;5031380;28;20026;-75
2021/09/08 09:21:16;;;;;;;6.63;3.47;;;;;;;23.85;37.81;100355.69;5032991;28;20083;-74
2021/09/08 09:23:44;;;;;;;6.65;3.17;;;;;;;24.00;37.72;100347.81;5033280;28;20080;-75
2021/09/08 09:26:09;;;;;;;5.43;3.08;;;;;;;24.03;37.34;100339.25;5034685;28;20029;-75
2021/09/08 09:28:44;;;;;;;4.13;3.20;;;;;;;23.99;37.54;100352.41;5041395;28;20027;-75
2021/09/08 09:31:23;;;;;;;7.43;3.83;;;;;;;24.13;37.48;100343.97;5042438;28;20024;-75
2021/09/08 09:33:55;;;;;;;7.53;2.83;;;;;;;24.31;37.07;100335.63;5051503;28;20056;-76
2021/09/08 09:36:23;;;;;;;6.63;3.65;;;;;;;24.49;36.84;100337.22;5048400;28;20468;-75
2021/09/08 09:38:51;;;;;;;3.85;3.22;;;;;;;24.72;36.54;100328.91;5049107;28;20029;-75
2021/09/08 09:41:43;;;;;;;6.07;3.15;;;;;;;24.89;36.37;100329.63;5050743;28;20032;-75
2021/09/08 09:44:10;;;;;;;6.18;2.78;;;;;;;24.83;36.15;100330.66;5033633;28;20509;-76
2021/09/08 09:46:44;;;;;;;14.45;3.38;;;;;;;24.75;36.41;100330.28;5032504;28;20029;-75
2021/09/08 09:49:14;;;;;;;9.18;3.20;;;;;;;24.69;36.27;100313.19;5032415;28;20037;-74
2021/09/08 09:51:40;;;;;;;8.43;3.55;;;;;;;24.70;36.39;100317.53;5033297;28;20056;-74
2021/09/08 09:54:05;;;;;;;6.10;3.15;;;;;;;24.62;36.24;100307.97;5031155;28;20498;-75
2021/09/08 09:56:30;;;;;;;6.30;3.28;;;;;;;24.58;36.32;100308.75;5031840;28;20060;-75
2021/09/08 09:58:56;;;;;;;4.97;3.45;;;;;;;24.32;36.49;100277.88;5030871;28;20029;-76
2021/09/08 10:01:22;;;;;;;5.63;3.20;;;;;;;24.40;36.63;100312.53;5032369;28;20033;-74
2021/09/08 10:03:47;;;;;;;7.40;3.40;;;;;;;24.00;36.79;100281.19;5033375;28;20029;-75
2021/09/08 10:06:14;;;;;;;6.80;3.47;;;;;;;24.19;36.85;100305.19;5032095;28;20037;-73
2021/09/08 10:08:48;;;;;;;7.72;3.25;;;;;;;24.27;36.65;100297.53;5046321;28;20086;-75
2021/09/08 10:11:20;;;;;;;5.85;3.38;;;;;;;23.99;36.62;100227.50;5056666;28;20032;-76
2021/09/08 10:14:06;;;;;;;8.20;4.63;;;;;;;24.44;36.00;100285.84;5052816;28;20053;-76
2021/09/08 10:16:35;;;;;;;15.18;10.23;;;;;;;24.08;36.55;100237.59;5053187;28;20025;-75
2021/09/08 10:19:07;;;;;;;7.28;4.47;;;;;;;24.08;35.67;100216.03;5033315;28;20052;-75
2021/09/08 10:21:35;;;;;;;10.05;6.03;;;;;;;24.99;35.45;100288.44;5049579;28;20495;-76
2021/09/08 10:24:04;;;;;;;7.07;4.80;;;;;;;25.17;35.36;100276.44;5051525;28;20025;-73
2021/09/08 10:26:32;;;;;;;6.72;3.30;;;;;;;25.28;35.06;100275.50;5048741;28;20107;-76
2021/09/08 10:29:06;;;;;;;15.00;8.73;;;;;;;25.25;34.71;100287.59;5037854;28;20104;-74
2021/09/08 10:31:50;;;;;;;8.15;4.47;;;;;;;24.80;35.14;100243.91;5043407;28;20016;-73
2021/09/08 10:34:16;;;;;;;9.85;4.35;;;;;;;24.67;35.63;100272.94;5059702;28;20419;-75
2021/09/08 10:36:44;;;;;;;5.30;3.83;;;;;;;24.52;35.88;100271.91;5047139;28;20025;-76
2021/09/08 10:39:12;;;;;;;6.80;3.78;;;;;;;24.53;35.94;100271.69;5039255;28;20099;-75
2021/09/08 10:41:51;;;;;;;9.00;5.82;;;;;;;24.54;36.22;100286.00;5031078;28;20037;-75
2021/09/08 10:44:45;;;;;;;12.10;5.20;;;;;;;24.53;35.90;100273.56;5031318;28;20068;-75
2021/09/08 10:47:11;;;;;;;6.55;4.28;;;;;;;24.43;35.95;100265.31;5046754;28;20083;-75
2021/09/08 10:49:37;;;;;;;10.05;6.57;;;;;;;24.51;35.88;100260.31;5054607;28;20028;-76
2021/09/08 10:52:04;;;;;;;11.27;5.05;;;;;;;24.33;35.84;100209.34;5051780;28;20498;-75
2021/09/08 10:54:29;;;;;;;11.63;6.60;;;;;;;24.34;35.77;100219.06;5039358;28;20104;-75
2021/09/08 10:56:55;;;;;;;12.38;6.18;;;;;;;24.64;36.10;100253.72;5036889;28;20120;-75
2021/09/08 10:59:20;;;;;;;8.30;4.82;;;;;;;24.62;36.17;100255.88;5052772;28;20071;-76
2021/09/08 11:01:46;;;;;;;6.50;3.50;;;;;;;24.22;36.06;100202.16;5050623;28;20049;-76
2021/09/08 11:04:16;;;;;;;8.90;6.05;;;;;;;24.43;36.16;100231.03;5037452;28;20391;-75
2021/09/08 11:06:44;;;;;;;8.02;5.40;;;;;;;24.67;35.71;100253.22;5048267;28;20033;-75
2021/09/08 11:09:11;;;;;;;9.43;7.53;;;;;;;24.39;35.95;100187.56;5059396;28;20107;-75
2021/09/08 11:11:50;;;;;;;13.73;6.40;;;;;;;24.81;35.63;100246.34;5051101;28;20528;-76
2021/09/08 11:14:16;;;;;;;6.18;3.63;;;;;;;24.32;35.43;100143.75;5050907;28;20525;-75
2021/09/08 11:16:42;;;;;;;13.98;5.28;;;;;;;25.20;35.03;100244.31;5050758;28;20029;-75
2021/09/08 11:19:12;;;;;;;12.68;3.70;;;;;;;25.15;35.06;100244.28;5050730;28;20056;-76
2021/09/08 11:21:38;;;;;;;17.77;3.92;;;;;;;25.15;35.24;100246.97;5050643;28;20047;-75